createdAt,value
2019-03-03T00:00:28.409Z,2.72
2019-03-03T00:05:31.867Z,2.68
2019-03-03T00:10:33.617Z,2.57
2019-03-03T00:15:35.475Z,2.56
2019-03-03T00:20:37.271Z,2.55
2019-03-03T00:25:39.935Z,2.52
2019-03-03T00:30:41.871Z,2.55
2019-03-03T00:35:43.448Z,2.57
2019-03-03T00:40:50.883Z,2.65
2019-03-03T00:46:10.901Z,2.74
2019-03-03T00:51:32.613Z,2.79
2019-03-03T00:56:36.143Z,2.78
2019-03-03T01:01:37.719Z,2.74
2019-03-03T01:06:41.508Z,2.64
2019-03-03T01:11:48.088Z,2.71
2019-03-03T01:16:57.453Z,2.81
2019-03-03T01:22:01.011Z,2.89
2019-03-03T01:27:03.890Z,2.90
2019-03-03T01:32:05.652Z,2.96
2019-03-03T01:37:07.203Z,2.97
2019-03-03T01:42:08.756Z,2.93
2019-03-03T01:47:10.310Z,2.90
2019-03-03T01:52:12.259Z,2.91
2019-03-03T01:57:13.997Z,2.91
2019-03-03T02:02:16.148Z,2.93
2019-03-03T02:07:17.904Z,2.89
2019-03-03T02:12:19.759Z,2.85
2019-03-03T02:17:21.465Z,2.85
2019-03-03T02:22:23.124Z,2.81
2019-03-03T02:27:24.798Z,2.80
2019-03-03T02:32:26.413Z,2.79
2019-03-03T02:37:27.978Z,2.84
2019-03-03T02:42:29.628Z,2.87
2019-03-03T02:47:31.182Z,2.87
2019-03-03T02:52:32.778Z,2.96
2019-03-03T02:57:34.768Z,2.97
2019-03-03T03:02:40.920Z,2.98
2019-03-03T03:07:59.449Z,3.05
2019-03-03T03:13:03.064Z,3.05
2019-03-03T03:18:06.518Z,3.00
2019-03-03T03:23:09.979Z,3.01
2019-03-03T03:28:13.496Z,2.97
2019-03-03T03:33:17.840Z,3.02
2019-03-03T03:38:30.020Z,3.10
2019-03-03T03:43:50.255Z,3.17
2019-03-03T03:48:57.927Z,3.18
2019-03-03T03:54:14.732Z,3.12
2019-03-03T03:59:22.403Z,3.12
2019-03-03T04:04:34.800Z,3.11
2019-03-03T04:09:46.916Z,3.10
2019-03-03T04:14:57.195Z,3.19
2019-03-03T04:19:58.958Z,3.24
2019-03-03T04:25:08.287Z,3.19
2019-03-03T04:30:18.095Z,3.20
2019-03-03T04:35:24.473Z,3.18
2019-03-03T04:40:30.872Z,3.13
2019-03-03T04:45:51.111Z,3.12
2019-03-03T04:50:55.694Z,3.08
2019-03-03T04:56:11.339Z,3.14
2019-03-03T05:01:19.397Z,3.14
2019-03-03T05:06:28.759Z,3.14
2019-03-03T05:12:20.368Z,3.12
2019-03-03T05:17:31.196Z,3.17
2019-03-03T05:22:32.753Z,3.20
2019-03-03T05:27:34.320Z,3.22
2019-03-03T05:32:36.073Z,3.24
2019-03-03T05:37:37.688Z,3.30
2019-03-03T05:42:39.235Z,3.31
2019-03-03T05:47:40.787Z,3.34
2019-03-03T05:52:42.846Z,3.39
2019-03-03T05:57:45.328Z,3.45
2019-03-03T06:02:46.892Z,3.54
2019-03-03T06:07:48.753Z,3.60
2019-03-03T06:12:51.450Z,3.61
2019-03-03T06:17:53.059Z,3.65
2019-03-03T06:22:55.021Z,3.67
2019-03-03T06:27:56.567Z,3.68
2019-03-03T06:32:58.522Z,3.74
2019-03-03T06:38:00.142Z,3.85
2019-03-03T06:43:01.716Z,3.99
2019-03-03T06:48:03.375Z,4.21
2019-03-03T06:53:04.916Z,4.44
2019-03-03T06:58:06.530Z,4.64
2019-03-03T07:03:08.208Z,4.81
2019-03-03T07:08:09.790Z,5.01
2019-03-03T07:13:11.355Z,5.05
2019-03-03T07:18:12.924Z,5.07
2019-03-03T07:23:14.484Z,5.02
2019-03-03T07:28:17.298Z,5.01
2019-03-03T07:33:21.022Z,4.96
2019-03-03T07:38:22.573Z,4.97
2019-03-03T07:43:24.129Z,5.04
2019-03-03T07:48:25.680Z,5.16
2019-03-03T07:53:27.259Z,5.22
2019-03-03T07:58:28.847Z,5.30
2019-03-03T08:03:30.460Z,5.43
2019-03-03T08:08:32.217Z,5.61
2019-03-03T08:13:34.875Z,5.69
2019-03-03T08:18:36.656Z,5.76
2019-03-03T08:23:38.516Z,5.93
2019-03-03T08:28:40.084Z,6.02
2019-03-03T08:33:41.743Z,6.19
2019-03-03T08:38:43.292Z,6.38
2019-03-03T08:43:49.649Z,6.57
2019-03-03T08:48:53.099Z,6.76
2019-03-03T08:54:08.284Z,6.89
2019-03-03T08:59:20.696Z,6.86
2019-03-03T09:04:42.427Z,6.78
2019-03-03T09:09:51.772Z,6.85
2019-03-03T09:15:01.343Z,6.84
2019-03-03T09:20:15.164Z,6.94
2019-03-03T09:25:30.776Z,7.13
2019-03-03T09:30:46.227Z,7.41
2019-03-03T09:35:53.333Z,8.15
2019-03-03T09:40:56.789Z,8.51
2019-03-03T09:45:58.350Z,8.41
2019-03-03T09:51:08.765Z,8.46
2019-03-03T09:56:15.153Z,8.33
2019-03-03T10:01:24.735Z,8.01
2019-03-03T10:06:38.521Z,7.85
2019-03-03T10:11:40.073Z,7.80
2019-03-03T10:16:46.218Z,7.90
2019-03-03T10:21:49.673Z,7.77
2019-03-03T10:26:53.138Z,8.48
2019-03-03T10:32:09.087Z,8.34
2019-03-03T10:37:14.425Z,8.32
2019-03-03T10:42:18.232Z,9.51
2019-03-03T10:47:19.989Z,9.15
2019-03-03T10:52:29.500Z,9.09
2019-03-03T10:57:50.058Z,8.71
2019-03-03T11:03:02.562Z,8.33
2019-03-03T11:08:10.180Z,8.14
2019-03-03T11:13:24.288Z,7.82
2019-03-03T11:18:36.824Z,7.72
2019-03-03T11:23:40.486Z,7.72
2019-03-03T11:28:43.961Z,7.60
2019-03-03T11:33:47.528Z,7.68
2019-03-03T11:38:56.999Z,7.72
2019-03-03T11:44:00.862Z,7.73
2019-03-03T11:49:22.834Z,7.80
2019-03-03T11:54:38.286Z,7.93
2019-03-03T11:59:44.651Z,8.17
2019-03-03T12:04:59.788Z,8.19
2019-03-03T12:10:10.642Z,8.33
2019-03-03T12:15:17.351Z,8.55
2019-03-03T12:20:38.040Z,8.65
2019-03-03T12:25:44.372Z,8.69
2019-03-03T12:30:47.950Z,9.12
2019-03-03T12:35:51.443Z,9.45
2019-03-03T12:40:56.921Z,9.46
2019-03-03T12:46:01.194Z,9.49
2019-03-03T12:51:04.849Z,9.39
2019-03-03T12:56:08.335Z,9.42
2019-03-03T13:01:14.411Z,9.44
2019-03-03T13:06:36.004Z,9.32
2019-03-03T13:11:52.011Z,9.37
2019-03-03T13:17:13.692Z,9.31
2019-03-03T13:22:33.915Z,9.44
2019-03-03T13:27:49.766Z,9.67
2019-03-03T13:32:53.523Z,9.36
2019-03-03T13:38:06.230Z,9.29
2019-03-03T13:43:07.888Z,9.13
2019-03-03T13:48:09.487Z,9.03
2019-03-03T13:53:11.740Z,9.17
2019-03-03T13:58:13.488Z,9.56
2019-03-03T14:03:15.391Z,9.97
2019-03-03T14:08:17.143Z,9.95
2019-03-03T14:13:18.735Z,9.68
2019-03-03T14:18:20.377Z,9.62
2019-03-03T14:23:22.045Z,9.56
2019-03-03T14:28:23.909Z,9.31
2019-03-03T14:33:25.481Z,9.23
2019-03-03T14:38:27.024Z,9.14
2019-03-03T14:43:28.660Z,9.08
2019-03-03T14:48:30.251Z,8.84
2019-03-03T14:53:31.825Z,8.60
2019-03-03T14:58:33.526Z,8.52
2019-03-03T15:03:35.212Z,8.51
2019-03-03T15:08:36.785Z,8.49
2019-03-03T15:13:38.337Z,8.41
2019-03-03T15:18:40.156Z,8.39
2019-03-03T15:23:41.773Z,8.38
2019-03-03T15:28:43.429Z,8.37
2019-03-03T15:33:44.983Z,8.34
2019-03-03T15:38:46.559Z,8.26
2019-03-03T15:43:48.167Z,8.22
2019-03-03T15:48:49.729Z,8.12
2019-03-03T15:53:51.653Z,8.04
2019-03-03T15:58:55.838Z,8.04
2019-03-03T16:03:56.750Z,7.95
2019-03-03T16:08:58.328Z,7.93
2019-03-03T16:13:59.891Z,7.90
2019-03-03T16:19:01.778Z,7.82
2019-03-03T16:24:03.542Z,7.72
2019-03-03T16:29:05.120Z,7.66
2019-03-03T16:34:06.725Z,7.50
2019-03-03T16:39:08.604Z,7.40
2019-03-03T16:44:10.419Z,7.26
2019-03-03T16:49:11.982Z,7.15
2019-03-03T16:54:13.657Z,7.08
2019-03-03T16:59:15.274Z,7.04
2019-03-03T17:04:16.860Z,7.06
2019-03-03T17:09:19.022Z,7.02
2019-03-03T17:14:20.622Z,7.02
2019-03-03T17:19:22.178Z,6.98
2019-03-03T17:24:23.732Z,7.00
2019-03-03T17:29:25.301Z,6.96
2019-03-03T17:34:26.877Z,6.96
2019-03-03T17:39:28.435Z,6.96
2019-03-03T17:44:30.208Z,7.01
2019-03-03T17:49:31.784Z,7.05
2019-03-03T17:54:34.772Z,7.09
2019-03-03T17:59:36.353Z,7.06
2019-03-03T18:04:37.991Z,7.06
2019-03-03T18:09:40.066Z,7.04
2019-03-03T18:14:41.656Z,7.13
2019-03-03T18:19:43.232Z,7.22
2019-03-03T18:24:44.924Z,7.33
2019-03-03T18:29:47.633Z,7.39
2019-03-03T18:34:51.417Z,7.38
2019-03-03T18:39:53.036Z,7.43
2019-03-03T18:44:55.821Z,7.50
2019-03-03T18:49:59.143Z,7.51
2019-03-03T18:55:11.208Z,7.46
2019-03-03T19:00:22.532Z,7.47
2019-03-03T19:05:24.729Z,7.46
2019-03-03T19:10:33.318Z,7.45
2019-03-03T19:15:35.346Z,7.55
2019-03-03T19:20:37.071Z,7.49
2019-03-03T19:25:38.600Z,7.46
2019-03-03T19:30:40.203Z,7.48
2019-03-03T19:35:42.172Z,7.46
2019-03-03T19:40:44.044Z,7.50
2019-03-03T19:45:56.942Z,7.50
2019-03-03T19:50:58.738Z,7.50
2019-03-03T19:56:00.330Z,7.58
2019-03-03T20:01:03.573Z,7.66
2019-03-03T20:06:06.588Z,7.71
2019-03-03T20:11:08.273Z,7.77
2019-03-03T20:16:09.932Z,7.77
2019-03-03T20:21:11.549Z,7.79
2019-03-03T20:26:13.270Z,7.77
2019-03-03T20:31:14.914Z,7.73
2019-03-03T20:36:16.581Z,7.73
2019-03-03T20:41:18.136Z,7.74
2019-03-03T20:46:20.186Z,7.72
2019-03-03T20:51:21.965Z,7.70
2019-03-03T20:56:23.529Z,7.80
2019-03-03T21:01:25.144Z,7.84
2019-03-03T21:06:26.746Z,7.93
2019-03-03T21:11:28.303Z,7.91
2019-03-03T21:16:29.856Z,7.90
2019-03-03T21:21:31.712Z,7.92
2019-03-03T21:26:33.302Z,7.94
2019-03-03T21:31:34.998Z,7.94
2019-03-03T21:36:36.540Z,7.90
2019-03-03T21:41:38.097Z,7.91
2019-03-03T21:46:39.789Z,7.91
2019-03-03T21:51:42.640Z,7.99
2019-03-03T21:56:44.326Z,8.01
2019-03-03T22:01:46.378Z,8.02
2019-03-03T22:06:50.597Z,7.99
2019-03-03T22:11:52.447Z,7.92
2019-03-03T22:16:54.312Z,7.94
2019-03-03T22:21:56.056Z,7.99
2019-03-03T22:26:57.703Z,8.02
2019-03-03T22:31:59.402Z,8.03
2019-03-03T22:37:00.973Z,8.01
2019-03-03T22:42:02.623Z,7.94
2019-03-03T22:47:04.222Z,7.91
2019-03-03T22:52:05.897Z,7.90
2019-03-03T22:57:07.463Z,7.87
2019-03-03T23:02:12.205Z,7.82
2019-03-03T23:07:22.375Z,7.80
2019-03-03T23:13:01.778Z,7.77
2019-03-03T23:18:40.797Z,7.74
2019-03-03T23:24:21.025Z,7.67
2019-03-03T23:29:22.593Z,7.72
2019-03-03T23:34:24.211Z,7.80
2019-03-03T23:39:25.793Z,7.69
2019-03-03T23:44:27.353Z,7.62
2019-03-03T23:49:29.005Z,7.61
2019-03-03T23:54:30.559Z,7.60
2019-03-03T23:59:32.124Z,7.63
